Cape Magnolia — 3FGP2 — position and weather

sailwx.info

Track history (hours):
 
Tides and Currents Weather Stations Pressure Air Temp Water Temp Dewpoint Dewpoint Depression Visibility Wind Speed Wind Dir Waves Ship Positions

Cape Magnolia

Last reported at 2018-Jan-09 07:29 UTC. Time now 2018-Jan-18 10:12 UTC.
Position S 15°58' E 119°36'.
Warning: this ship's position is 9 days out of date.

Length 292 m; draft 16.2 m.

Type: Cargo ship. MMSI: 357427000.

Date/timePositionNaut miles runAvg speedWind from/ knotsBaromVisibWave heightAir tempDewpointWater temp
2018-Jan-09 07:29S 15°58' E 119°36'713.0
2018-Jan-09 06:59S 16°04' E 119°32'1612.7
2018-Jan-09 05:44S 16°18' E 119°24'1013.0
2018-Jan-09 04:59S 16°27' E 119°20'713.0
2018-Jan-09 04:28S 16°33' E 119°17'613.1
2018-Jan-09 04:00S 16°38' E 119°14'813.0
2018-Jan-09 03:22S 16°45' E 119°10'1612.8
2018-Jan-09 02:09S 16°59' E 119°02'213.0
2018-Jan-09 01:59S 17°01' E 119°01'612.8
2018-Jan-09 01:29S 17°06' E 118°57'2312.5
2018-Jan-08 23:37S 17°27' E 118°46'212.7
2018-Jan-08 23:29S 17°29' E 118°45'712.6
2018-Jan-08 22:57S 17°35' E 118°42'712.8
2018-Jan-08 22:25S 17°41' E 118°39'512.7
2018-Jan-08 21:59S 17°46' E 118°37'4412.5
2018-Jan-08 18:29S 18°26' E 118°19'611.9
2018-Jan-08 18:00S 18°32' E 118°17'612.6
2018-Jan-08 17:29S 18°38' E 118°14'612.4
2018-Jan-08 17:00S 18°43' E 118°12'612.6
2018-Jan-08 16:30S 18°49' E 118°09'712.5
2018-Jan-08 15:58S 18°55' E 118°06'812.6
2018-Jan-08 15:20S 19°02' E 118°03'512.2
2018-Jan-08 14:56S 19°07' E 118°01'512.3
2018-Jan-08 14:30S 19°12' E 117°59'612.8
2018-Jan-08 14:00S 19°18' E 117°56'812.8
2018-Jan-08 13:21S 19°25' E 117°53'412.9
2018-Jan-08 13:00S 19°30' E 117°51'612.9
2018-Jan-08 12:30S 19°35' E 117°48'612.8
2018-Jan-08 12:00S 19°41' E 117°46'712.8
2018-Jan-08 11:28S 19°48' E 117°43'612.8
2018-Jan-08 11:00S 19°53' E 117°40'612.8
2018-Jan-08 10:30S 19°59' E 117°38'712.7
2018-Jan-08 10:00S 20°05' E 117°36'612.4
2018-Jan-08 09:30S 20°11' E 117°33'612.4
2018-Jan-08 09:00S 20°16' E 117°30'612.2
2018-Jan-08 08:29S 20°22' E 117°27'511.1
2018-Jan-08 08:01S 20°27' E 117°26'610.6
2018-Jan-08 07:29S 20°28' E 117°20'4 9.0
2018-Jan-08 07:00S 20°30' E 117°16'510.2
2018-Jan-08 06:30S 20°34' E 117°12'0 0.2
2018-Jan-08 04:40S 20°35' E 117°12'0 0.0
2018-Jan-08 04:28S 20°35' E 117°12'0 0.0
2018-Jan-08 04:00S 20°35' E 117°12'0 0.0
2018-Jan-08 03:04S 20°35' E 117°12'0 0.0
2018-Jan-08 02:04S 20°35' E 117°12'0 0.0
2018-Jan-08 01:53S 20°35' E 117°12'0 0.0
2018-Jan-06 12:05S 20°35' E 117°12'0 0.0
2018-Jan-06 11:41S 20°35' E 117°12'0 0.0
2018-Jan-06 11:23S 20°35' E 117°12'0 0.0
2018-Jan-06 10:35S 20°35' E 117°12'0 0.0
2018-Jan-06 10:29S 20°35' E 117°12'0 0.0
2018-Jan-06 09:59S 20°35' E 117°12'0 0.0
2018-Jan-06 09:05S 20°35' E 117°12'0 0.1
2018-Jan-06 08:59S 20°35' E 117°12'0 0.0
2018-Jan-06 08:05S 20°35' E 117°12'0 0.0
2018-Jan-06 07:35S 20°35' E 117°12'0 0.0
2018-Jan-06 07:11S 20°35' E 117°12'0 0.0
2018-Jan-06 06:53S 20°35' E 117°12'0 0.0
2018-Jan-06 06:12S 20°35' E 117°12'0 0.0
2018-Jan-06 06:00S 20°35' E 117°12'1 2.7
2018-Jan-06 05:30S 20°34' E 117°13'3 5.9
2018-Jan-06 05:00S 20°33' E 117°16'2 3.9
2018-Jan-06 04:30S 20°32' E 117°18'3 5.5
2018-Jan-06 03:59S 20°32' E 117°21'1 1.0
2018-Jan-06 03:17S 20°32' E 117°22'0 0.0
2018-Jan-06 02:53S 20°32' E 117°22'0 0.0
2018-Jan-06 02:17S 20°32' E 117°22'0 0.0
2018-Jan-06 01:59S 20°32' E 117°22'0 0.1
2018-Jan-06 01:23S 20°32' E 117°22'0 0.1
2018-Jan-05 23:11S 20°32' E 117°22'0 0.3
2018-Jan-05 22:53S 20°32' E 117°22'0 0.1
2018-Jan-05 22:23S 20°32' E 117°22'0 0.1
2018-Jan-05 21:53S 20°32' E 117°22'0 0.0
2018-Jan-05 21:11S 20°32' E 117°22'0 0.1
2018-Jan-05 20:59S 20°32' E 117°22'0 0.2
2018-Jan-05 20:17S 20°32' E 117°22'1 1.6
2018-Jan-05 19:56S 20°32' E 117°22'1 2.6
2018-Jan-05 19:27S 20°31' E 117°24'2 5.3
2018-Jan-05 19:00S 20°30' E 117°26'612.7
2018-Jan-05 18:30S 20°24' E 117°28'4 9.0
2018-Jan-05 18:00S 20°19' E 117°29'510.8
2018-Jan-05 17:30S 20°15' E 117°31'510.8
2018-Jan-05 17:00S 20°10' E 117°33'611.1
2018-Jan-05 16:30S 20°04' E 117°36'612.0
2018-Jan-05 15:59S 19°59' E 117°38'510.3
2018-Jan-05 15:30S 19°54' E 117°40'611.3
2018-Jan-05 15:00S 19°49' E 117°42'611.3
2018-Jan-05 14:30S 19°44' E 117°45'711.6
2018-Jan-05 13:55S 19°37' E 117°48'410.8
2018-Jan-05 13:30S 19°33' E 117°49'611.2
2018-Jan-05 13:00S 19°28' E 117°52'611.7
2018-Jan-05 12:29S 19°23' E 117°55'811.7
2018-Jan-05 11:50S 19°16' E 117°58'511.7
2018-Jan-05 11:24S 19°11' E 117°60'511.8
2018-Jan-05 10:59S 19°06' E 118°01'611.8
2018-Jan-05 10:27S 19°01' E 118°04'511.3
2018-Jan-05 10:00S 18°56' E 118°06'610.8
2018-Jan-05 09:29S 18°51' E 118°08'610.5
2018-Jan-05 08:58S 18°45' E 118°10'510.2
2018-Jan-05 08:27S 18°41' E 118°12'510.1
2018-Jan-05 08:00S 18°37' E 118°14'510.4
2018-Jan-05 07:30S 18°32' E 118°16'510.2
2018-Jan-05 07:00S 18°27' E 118°19'510.2
2018-Jan-05 06:30S 18°22' E 118°20'510.3
2018-Jan-05 05:59S 18°17' E 118°22'611.6
2018-Jan-05 05:29S 18°12' E 118°24'810.9
2018-Jan-05 04:47S 18°05' E 118°27'3211.1
2018-Jan-05 01:55S 17°36' E 118°42'816.3
2018-Jan-05 01:26S 17°29' E 118°45'612.9
2018-Jan-05 01:00S 17°24' E 118°48'1114.3
2018-Jan-05 00:12S 17°14' E 118°53'2 7.8
2018-Jan-05 00:00S 17°12' E 118°54'710.8
2018-Jan-04 23:23S 17°06' E 118°57'712.4
2018-Jan-04 22:48S 16°60' E 119°01'511.8
2018-Jan-04 22:22S 16°56' E 119°03'611.2
2018-Jan-04 21:48S 16°50' E 119°06'413.1
2018-Jan-04 21:29S 16°46' E 119°09'511.3
2018-Jan-04 21:00S 16°42' E 119°11'911.4
2018-Jan-04 20:11S 16°33' E 119°16'411.4
2018-Jan-04 19:52S 16°30' E 119°18'4811.5
2018-Jan-04 15:40S 15°48' E 119°41'4 9.0
2018-Jan-04 15:13S 15°44' E 119°43'2411.5
2018-Jan-04 13:09S 15°23' E 119°55'511.5
2018-Jan-04 12:45S 15°19' E 119°57'10011.1
2018-Jan-04 03:46S 13°50' E 120°44'4 9.5
2018-Jan-04 03:23S 13°47' E 120°46'6111.5
2018-Jan-03 22:06S 12°53' E 121°14'215.1
2018-Jan-03 22:00S 12°51' E 121°15'  
Track history (hours):
 
Tides and Currents Weather Stations Pressure Air Temp Water Temp Dewpoint Dewpoint Depression Visibility Wind Speed Wind Dir Waves Ship Positions

Cape Magnolia

Last reported at 2018-Jan-09 07:29 UTC. Time now 2018-Jan-18 10:12 UTC.
Position S 15°58' E 119°36'.
Warning: this ship's position is 9 days out of date.

Length 292 m; draft 16.2 m.

Type: Cargo ship. MMSI: 357427000.

Date/timePositionNaut miles runAvg speedWind from/ knotsBaromVisibWave heightAir tempDewpointWater temp
2018-Jan-09 07:29S 15°58' E 119°36'713.0
2018-Jan-09 06:59S 16°04' E 119°32'1612.7
2018-Jan-09 05:44S 16°18' E 119°24'1013.0
2018-Jan-09 04:59S 16°27' E 119°20'713.0
2018-Jan-09 04:28S 16°33' E 119°17'613.1
2018-Jan-09 04:00S 16°38' E 119°14'813.0
2018-Jan-09 03:22S 16°45' E 119°10'1612.8
2018-Jan-09 02:09S 16°59' E 119°02'213.0
2018-Jan-09 01:59S 17°01' E 119°01'612.8
2018-Jan-09 01:29S 17°06' E 118°57'2312.5
2018-Jan-08 23:37S 17°27' E 118°46'212.7
2018-Jan-08 23:29S 17°29' E 118°45'712.6
2018-Jan-08 22:57S 17°35' E 118°42'712.8
2018-Jan-08 22:25S 17°41' E 118°39'512.7
2018-Jan-08 21:59S 17°46' E 118°37'4412.5
2018-Jan-08 18:29S 18°26' E 118°19'611.9
2018-Jan-08 18:00S 18°32' E 118°17'612.6
2018-Jan-08 17:29S 18°38' E 118°14'612.4
2018-Jan-08 17:00S 18°43' E 118°12'612.6
2018-Jan-08 16:30S 18°49' E 118°09'712.5
2018-Jan-08 15:58S 18°55' E 118°06'812.6
2018-Jan-08 15:20S 19°02' E 118°03'512.2
2018-Jan-08 14:56S 19°07' E 118°01'512.3
2018-Jan-08 14:30S 19°12' E 117°59'612.8
2018-Jan-08 14:00S 19°18' E 117°56'812.8
2018-Jan-08 13:21S 19°25' E 117°53'412.9
2018-Jan-08 13:00S 19°30' E 117°51'612.9
2018-Jan-08 12:30S 19°35' E 117°48'612.8
2018-Jan-08 12:00S 19°41' E 117°46'712.8
2018-Jan-08 11:28S 19°48' E 117°43'612.8
2018-Jan-08 11:00S 19°53' E 117°40'612.8
2018-Jan-08 10:30S 19°59' E 117°38'712.7
2018-Jan-08 10:00S 20°05' E 117°36'612.4
2018-Jan-08 09:30S 20°11' E 117°33'612.4
2018-Jan-08 09:00S 20°16' E 117°30'612.2
2018-Jan-08 08:29S 20°22' E 117°27'511.1
2018-Jan-08 08:01S 20°27' E 117°26'610.6
2018-Jan-08 07:29S 20°28' E 117°20'4 9.0
2018-Jan-08 07:00S 20°30' E 117°16'510.2
2018-Jan-08 06:30S 20°34' E 117°12'0 0.2
2018-Jan-08 04:40S 20°35' E 117°12'0 0.0
2018-Jan-08 04:28S 20°35' E 117°12'0 0.0
2018-Jan-08 04:00S 20°35' E 117°12'0 0.0
2018-Jan-08 03:04S 20°35' E 117°12'0 0.0
2018-Jan-08 02:04S 20°35' E 117°12'0 0.0
2018-Jan-08 01:53S 20°35' E 117°12'0 0.0
2018-Jan-06 12:05S 20°35' E 117°12'0 0.0
2018-Jan-06 11:41S 20°35' E 117°12'0 0.0
2018-Jan-06 11:23S 20°35' E 117°12'0 0.0
2018-Jan-06 10:35S 20°35' E 117°12'0 0.0
2018-Jan-06 10:29S 20°35' E 117°12'0 0.0
2018-Jan-06 09:59S 20°35' E 117°12'0 0.0
2018-Jan-06 09:05S 20°35' E 117°12'0 0.1
2018-Jan-06 08:59S 20°35' E 117°12'0 0.0
2018-Jan-06 08:05S 20°35' E 117°12'0 0.0
2018-Jan-06 07:35S 20°35' E 117°12'0 0.0
2018-Jan-06 07:11S 20°35' E 117°12'0 0.0
2018-Jan-06 06:53S 20°35' E 117°12'0 0.0
2018-Jan-06 06:12S 20°35' E 117°12'0 0.0
2018-Jan-06 06:00S 20°35' E 117°12'1 2.7
2018-Jan-06 05:30S 20°34' E 117°13'3 5.9
2018-Jan-06 05:00S 20°33' E 117°16'2 3.9
2018-Jan-06 04:30S 20°32' E 117°18'3 5.5
2018-Jan-06 03:59S 20°32' E 117°21'1 1.0
2018-Jan-06 03:17S 20°32' E 117°22'0 0.0
2018-Jan-06 02:53S 20°32' E 117°22'0 0.0
2018-Jan-06 02:17S 20°32' E 117°22'0 0.0
2018-Jan-06 01:59S 20°32' E 117°22'0 0.1
2018-Jan-06 01:23S 20°32' E 117°22'0 0.1
2018-Jan-05 23:11S 20°32' E 117°22'0 0.3
2018-Jan-05 22:53S 20°32' E 117°22'0 0.1
2018-Jan-05 22:23S 20°32' E 117°22'0 0.1
2018-Jan-05 21:53S 20°32' E 117°22'0 0.0
2018-Jan-05 21:11S 20°32' E 117°22'0 0.1
2018-Jan-05 20:59S 20°32' E 117°22'0 0.2
2018-Jan-05 20:17S 20°32' E 117°22'1 1.6
2018-Jan-05 19:56S 20°32' E 117°22'1 2.6
2018-Jan-05 19:27S 20°31' E 117°24'2 5.3
2018-Jan-05 19:00S 20°30' E 117°26'612.7
2018-Jan-05 18:30S 20°24' E 117°28'4 9.0
2018-Jan-05 18:00S 20°19' E 117°29'510.8
2018-Jan-05 17:30S 20°15' E 117°31'510.8
2018-Jan-05 17:00S 20°10' E 117°33'611.1
2018-Jan-05 16:30S 20°04' E 117°36'612.0
2018-Jan-05 15:59S 19°59' E 117°38'510.3
2018-Jan-05 15:30S 19°54' E 117°40'611.3
2018-Jan-05 15:00S 19°49' E 117°42'611.3
2018-Jan-05 14:30S 19°44' E 117°45'711.6
2018-Jan-05 13:55S 19°37' E 117°48'410.8
2018-Jan-05 13:30S 19°33' E 117°49'611.2
2018-Jan-05 13:00S 19°28' E 117°52'611.7
2018-Jan-05 12:29S 19°23' E 117°55'811.7
2018-Jan-05 11:50S 19°16' E 117°58'511.7
2018-Jan-05 11:24S 19°11' E 117°60'511.8
2018-Jan-05 10:59S 19°06' E 118°01'611.8
2018-Jan-05 10:27S 19°01' E 118°04'511.3
2018-Jan-05 10:00S 18°56' E 118°06'610.8
2018-Jan-05 09:29S 18°51' E 118°08'610.5
2018-Jan-05 08:58S 18°45' E 118°10'510.2
2018-Jan-05 08:27S 18°41' E 118°12'510.1
2018-Jan-05 08:00S 18°37' E 118°14'510.4
2018-Jan-05 07:30S 18°32' E 118°16'510.2
2018-Jan-05 07:00S 18°27' E 118°19'510.2
2018-Jan-05 06:30S 18°22' E 118°20'510.3
2018-Jan-05 05:59S 18°17' E 118°22'611.6
2018-Jan-05 05:29S 18°12' E 118°24'810.9
2018-Jan-05 04:47S 18°05' E 118°27'3211.1
2018-Jan-05 01:55S 17°36' E 118°42'816.3
2018-Jan-05 01:26S 17°29' E 118°45'612.9
2018-Jan-05 01:00S 17°24' E 118°48'1114.3
2018-Jan-05 00:12S 17°14' E 118°53'2 7.8
2018-Jan-05 00:00S 17°12' E 118°54'710.8
2018-Jan-04 23:23S 17°06' E 118°57'712.4
2018-Jan-04 22:48S 16°60' E 119°01'511.8
2018-Jan-04 22:22S 16°56' E 119°03'611.2
2018-Jan-04 21:48S 16°50' E 119°06'413.1
2018-Jan-04 21:29S 16°46' E 119°09'511.3
2018-Jan-04 21:00S 16°42' E 119°11'911.4
2018-Jan-04 20:11S 16°33' E 119°16'411.4
2018-Jan-04 19:52S 16°30' E 119°18'4811.5
2018-Jan-04 15:40S 15°48' E 119°41'4 9.0
2018-Jan-04 15:13S 15°44' E 119°43'2411.5
2018-Jan-04 13:09S 15°23' E 119°55'511.5
2018-Jan-04 12:45S 15°19' E 119°57'10011.1
2018-Jan-04 03:46S 13°50' E 120°44'4 9.5
2018-Jan-04 03:23S 13°47' E 120°46'6111.5
2018-Jan-03 22:06S 12°53' E 121°14'215.1
2018-Jan-03 22:00S 12°51' E 121°15'  

Dump ship's entire track history